ADDS METAR Data INFO
IDs: Format: Raw Decoded Include TAF

Data at: 1526 UTC 18 Jun 2018

KOMA 181452Z 19009KT 10SM FEW100 SCT140 SCT250 29/21 A2993 RMK AO2 SLP125 T02890211 50000
KOMA 181352Z 18008KT 10SM SCT100 SCT140 SCT250 28/21 A2994 RMK AO2 SLP126 T02830206
KOMA 181252Z 16008KT 10SM SCT075 27/21 A2994 RMK AO2 SLP128 TCU DSNT SW-NW T02670206
KOMA 181152Z 15007KT 10SM SCT085 SCT200 25/21 A2993 RMK AO2 SLP126 70013 T02500206 10283 20250 53012
KOMA 181052Z 15008KT 10SM SCT080 BKN090 26/21 A2992 RMK AO2 SLP121 T02560206
KOMA 180952Z 14006KT 10SM SCT170 25/21 A2991 RMK AO2 SLP119 T02500206
KOMA 180852Z 19004KT 10SM SCT100 BKN170 27/20 A2990 RMK AO2 SLP115 T02720200 53006
KOMA 180752Z 19008KT 10SM BKN150 28/20 A2989 RMK AO2 SLP109 T02830200
KOMA 180652Z 18010KT 10SM SCT150 28/20 A2988 RMK AO2 SLP106 T02830200
KOMA 180552Z 18013KT 10SM SCT150 28/20 A2988 RMK AO2 SLP107 60000 T02830200 10317 20283 403390261 51016
KOMA 180452Z 17013KT 10SM FEW150 SCT250 28/20 A2987 RMK AO2 SLP104 T02830200
KOMA 180352Z 16012KT 10SM FEW150 SCT250 29/20 A2987 RMK AO2 SLP101 T02890200
KOMA 180252Z 17014KT 10SM SCT150 SCT250 30/21 A2983 RMK AO2 SLP090 60000 T03000206 53004
KOMA 180152Z 17016KT 10SM SCT150 BKN250 31/21 A2982 RMK AO2 SLP084 T03060211
KOMA 180052Z 16012KT 10SM FEW120 SCT150 BKN250 31/23 A2981 RMK AO2 RAE2354 SLP084 P0000 T03060228
KOMA 172352Z 16011KT 10SM -RA FEW050 SCT070 SCT120 BKN250 31/23 A2982 RMK AO2 RAB45 SLP087 P0000 60013 T03060233 10339 20261 58014
KOMA 172252Z 15010KT 10SM FEW065 SCT095 BKN250 29/23 A2985 RMK AO2 SLP098 CB DSNT NE T02890228
KOMA 172228Z 13012KT 10SM VCTS FEW050CB SCT065 SCT095 BKN250 28/23 A2987 RMK AO2 OCNL LTGIC NE TS NE MOV NE T02830233
KOMA 172152Z 09007KT 10SM FEW060 FEW095 BKN250 26/22 A2986 RMK AO2 LTG DSNT ALQDS RAE25 TSE39 SLP102 CB DSNT NE-SE MOV NE P0007 T02610217
KOMA 172145Z COR 10006KT 10SM FEW050 SCT060 SCT095 BKN250 27/22 A2986 RMK AO2 LTG DSNT ALQDS RAE25 TSE39 OCNL LTGIC NE-SE CB DSNT NE-SE MOV NE P0007 T02670217
KOMA 172101Z 17004KT 3SM -TSRA FEW024 BKN048CB OVC070 26/22 A2986 RMK AO2 LTG DSNT ALQDS VIS NE 1 1/2 OCNL LTGIC OHD-NE TS OHD-NE MOV NE P0007 T02610222
KOMA 172052Z 18011G34KT 1 1/2SM R14R/3500VP6000FT +TSRA FEW024 BKN048CB OVC070 26/22 A2986 RMK AO2 PK WND 17034/2043 LTG DSNT S-NW RAB46 TSE28B50 SLP101 OCNL LTGIC OHD-SE-SW TS OHD-SE-SW MOV NE P0006 60006 T02610217 55004
KOMA 172050Z 19013G34KT 1 1/2SM R14R/3500VP6000FT TSRA FEW024 BKN048CB OVC070 26/22 A2985 RMK AO2 PK WND 17034/2043 LTG DSNT S-NW RAB46 TSE28B50 OCNL LTGIC OHD-SE-SW TS OHD-SE-SW MOV NE P0000
KOMA 172034Z COR 16012G22KT 10SM VCTS SCT050CB BKN065 BKN080 33/21 A2984 RMK AO2 LTG DSNT S-W TSE28 OCNL LTGIC S-W TS S-W MOV NE T03280211
KOMA 171952Z 18009G17KT 10SM FEW046 SCT095 BKN120 34/21 A2986 RMK AO2 SLP099 T03390211
KOMA 171852Z 19007KT 10SM SCT100 BKN150 32/21 A2987 RMK AO2 SLP104 T03220206
KOMA 171752Z 18012KT 10SM FEW037 SCT100 BKN120 31/21 A2989 RMK AO2 RAB18E34 SLP109 P0000 60000 T03110206 10317 20267 53000
KOMA 171652Z 22014KT 10SM FEW080 BKN120 BKN250 31/20 A2989 RMK AO2 SLP109 T03110200
KOMA 171552Z 18013KT 10SM FEW120 BKN250 31/21 A2988 RMK AO2 SLP107 T03060206
KOMA 171452Z 19011G21KT 10SM SCT150 BKN250 29/21 A2989 RMK AO2 SLP109 T02940206 51011
KOMA 171352Z 17016G21KT 10SM SCT150 BKN250 28/20 A2988 RMK AO2 SLP106 T02830200
KOMA 171252Z 18012KT 10SM FEW120 BKN250 27/20 A2987 RMK AO2 SLP102 T02720200
KOMA 171152Z 18009KT 10SM FEW045 SCT120 BKN250 27/19 A2985 RMK AO2 SLP097 T02670194 10283 20261 51010
KOMA 171052Z 17011KT 10SM FEW120 BKN250 26/19 A2984 RMK AO2 SLP094 T02610194
KOMA 170952Z 16010KT 10SM FEW045 FEW120 SCT250 26/19 A2984 RMK AO2 SLP091 T02610194
KOMA 170852Z 17011KT 10SM FEW120 SCT250 27/20 A2982 RMK AO2 SLP086 T02720200 55002
KOMA 170752Z 17010KT 10SM FEW120 SCT250 27/20 A2981 RMK AO2 SLP081 T02720200
KOMA 170652Z 16009KT 10SM SCT120 BKN250 28/20 A2982 RMK AO2 SLP085 T02780200
KOMA 170552Z 16010KT 10SM FEW140 BKN250 28/20 A2983 RMK AO2 SLP089 T02830200 10333 20283 403610256 51018
KOMA 170452Z 17012KT 10SM FEW140 SCT250 29/19 A2982 RMK AO2 SLP086 T02940194
KOMA 170352Z 17016G25KT 10SM FEW140 SCT250 30/19 A2980 RMK AO2 SLP078 T03000194